Time;durP1;ratioP1;P1;durP2;ratioP2;P2;SDS_P1;SDS_P2;PMS_P1;PMS_P2;Temp;Humidity;BMP_temperature;BMP_pressure;BME280_temperature;BME280_humidity;BME280_pressure;Samples;Min_cycle;Max_cycle;Signal;HPM_P1;HPM_P2
2021/10/22 00:01:33;;;;;;;17.05;9.98;;;;;;;13.94;100.00;97669.72;4955105;28;20038;-77
2021/10/22 00:03:59;;;;;;;21.80;9.88;;;;;;;13.91;100.00;97673.94;4956757;28;20078;-76
2021/10/22 00:06:25;;;;;;;13.88;8.65;;;;;;;13.95;100.00;97674.09;4941891;29;20007;-76
2021/10/22 00:08:51;;;;;;;17.20;9.70;;;;;;;13.92;100.00;97670.06;4978907;28;20024;-76
2021/10/22 00:11:16;;;;;;;12.73;8.60;;;;;;;13.89;100.00;97673.47;4965239;28;20388;-77
2021/10/22 00:13:41;;;;;;;18.42;9.75;;;;;;;13.97;100.00;97673.78;4958132;28;20503;-76
2021/10/22 00:16:07;;;;;;;16.08;9.93;;;;;;;14.00;100.00;97670.38;4939073;29;20114;-77
2021/10/22 00:18:33;;;;;;;12.23;9.20;;;;;;;14.03;100.00;97672.47;4936627;29;20043;-77
2021/10/22 00:20:58;;;;;;;14.82;9.95;;;;;;;14.08;100.00;97669.56;4953877;28;20366;-76
2021/10/22 00:23:23;;;;;;;15.13;10.50;;;;;;;14.10;100.00;97675.53;4942366;29;20031;-76
2021/10/22 00:25:51;;;;;;;15.30;9.77;;;;;;;14.02;100.00;97668.91;4955100;29;20039;-76
2021/10/22 00:28:17;;;;;;;12.80;9.07;;;;;;;14.01;100.00;97674.72;4937465;29;20389;-76
2021/10/22 00:30:43;;;;;;;17.00;10.98;;;;;;;14.04;100.00;97676.84;4955016;28;20024;-77
2021/10/22 00:33:09;;;;;;;16.77;9.98;;;;;;;14.01;100.00;97678.28;4958955;29;20510;-77
2021/10/22 00:35:35;;;;;;;16.05;10.38;;;;;;;13.97;100.00;97682.03;4958236;28;20098;-77
2021/10/22 00:38:00;;;;;;;13.63;9.20;;;;;;;13.96;100.00;97683.97;4960214;28;20121;-78
2021/10/22 00:40:26;;;;;;;14.32;9.77;;;;;;;13.98;100.00;97684.44;4947225;29;20081;-79
2021/10/22 00:42:54;;;;;;;16.90;9.98;;;;;;;13.93;100.00;97682.69;4958257;28;20463;-76
2021/10/22 00:45:19;;;;;;;16.52;10.07;;;;;;;13.89;100.00;97691.88;4953330;29;20031;-77
2021/10/22 00:47:44;;;;;;;15.45;10.75;;;;;;;13.91;100.00;97687.69;4935925;29;20090;-76
2021/10/22 00:50:10;;;;;;;14.27;10.10;;;;;;;13.94;100.00;97695.28;4952979;29;20043;-76
2021/10/22 00:52:35;;;;;;;14.70;9.85;;;;;;;13.98;100.00;97686.38;4952938;28;20042;-76
2021/10/22 00:55:01;;;;;;;15.05;10.27;;;;;;;13.89;100.00;97692.69;4954004;29;20071;-80
2021/10/22 00:57:26;;;;;;;12.82;9.95;;;;;;;13.68;100.00;97685.41;4959979;29;20055;-78
2021/10/22 00:59:52;;;;;;;17.90;11.75;;;;;;;13.59;100.00;97685.41;4957270;29;20027;-77
2021/10/22 01:02:17;;;;;;;18.95;13.05;;;;;;;13.55;100.00;97687.19;4958000;28;20069;-79
2021/10/22 01:04:44;;;;;;;19.02;13.13;;;;;;;13.52;100.00;97682.31;4939926;29;20574;-78
2021/10/22 01:07:13;;;;;;;20.15;13.43;;;;;;;13.43;100.00;97675.19;4956276;28;20035;-78
2021/10/22 01:09:39;;;;;;;21.15;13.27;;;;;;;13.41;100.00;97664.50;4937979;29;20393;-80
2021/10/22 01:12:05;;;;;;;18.02;13.27;;;;;;;13.45;100.00;97662.75;4939939;29;20035;-80
2021/10/22 01:14:30;;;;;;;16.10;12.48;;;;;;;13.49;100.00;97673.91;4959144;28;20035;-78
2021/10/22 01:16:56;;;;;;;19.48;13.13;;;;;;;13.47;100.00;97671.47;4960131;28;20035;-79
2021/10/22 01:19:21;;;;;;;18.80;14.55;;;;;;;13.43;100.00;97669.69;4959715;29;20038;-77
2021/10/22 01:21:49;;;;;;;19.92;14.85;;;;;;;13.34;100.00;97672.44;4939534;29;20035;-77
2021/10/22 01:24:16;;;;;;;18.55;14.35;;;;;;;13.36;100.00;97681.16;4943383;29;20480;-78
2021/10/22 01:26:42;;;;;;;19.67;15.15;;;;;;;13.33;100.00;97687.28;4956676;29;20043;-78
2021/10/22 01:29:08;;;;;;;18.30;15.18;;;;;;;13.30;100.00;97680.50;4938874;29;20563;-78
2021/10/22 01:31:34;;;;;;;22.70;15.02;;;;;;;13.36;100.00;97689.41;4957059;29;20024;-78
2021/10/22 01:34:00;;;;;;;20.25;14.55;;;;;;;13.42;100.00;97677.13;4954263;28;20097;-76
2021/10/22 01:36:26;;;;;;;15.73;12.57;;;;;;;13.46;100.00;97689.09;4953007;29;20121;-77
2021/10/22 01:38:53;;;;;;;22.00;12.57;;;;;;;13.38;100.00;97687.13;4952870;28;20051;-76
2021/10/22 01:41:18;;;;;;;17.92;13.50;;;;;;;13.40;100.00;97690.38;4952561;28;20031;-77
2021/10/22 01:43:44;;;;;;;16.23;11.38;;;;;;;13.42;100.00;97688.13;4937432;29;20097;-77
2021/10/22 01:46:11;;;;;;;19.70;11.90;;;;;;;13.39;100.00;97684.06;4952851;28;20086;-76
2021/10/22 01:48:37;;;;;;;17.70;10.57;;;;;;;13.39;100.00;97695.06;4954184;28;20030;-77
2021/10/22 01:51:03;;;;;;;17.20;12.77;;;;;;;13.37;100.00;97693.78;4938974;29;20076;-76
2021/10/22 01:53:28;;;;;;;16.13;11.63;;;;;;;13.37;100.00;97691.03;4956224;29;20063;-77
2021/10/22 01:55:54;;;;;;;15.82;11.55;;;;;;;13.36;100.00;97698.44;4956381;28;20089;-77
2021/10/22 01:58:19;;;;;;;19.83;11.90;;;;;;;13.47;100.00;97687.16;4956724;28;20023;-77
2021/10/22 02:00:47;;;;;;;20.33;12.82;;;;;;;13.33;100.00;97684.53;4939103;29;20035;-77
2021/10/22 02:03:13;;;;;;;19.70;13.57;;;;;;;13.33;100.00;97693.59;4956299;28;20027;-76
2021/10/22 02:05:39;;;;;;;16.63;13.40;;;;;;;13.26;100.00;97695.19;4939098;29;20038;-77
2021/10/22 02:08:05;;;;;;;20.38;13.95;;;;;;;13.15;100.00;97700.19;4957976;28;20027;-77
2021/10/22 02:10:31;;;;;;;16.33;12.60;;;;;;;13.11;100.00;97698.38;4964843;29;20038;-78
2021/10/22 02:12:58;;;;;;;16.05;12.73;;;;;;;13.12;100.00;97689.81;4958700;28;20031;-79
2021/10/22 02:15:23;;;;;;;15.40;13.07;;;;;;;13.17;100.00;97686.91;4941051;29;20481;-77
2021/10/22 02:17:49;;;;;;;19.42;12.38;;;;;;;13.15;100.00;97683.69;4924314;29;20162;-78
2021/10/22 02:20:15;;;;;;;17.85;12.55;;;;;;;13.17;100.00;97705.34;4944869;29;20056;-79
2021/10/22 02:22:41;;;;;;;18.92;12.55;;;;;;;13.15;100.00;97691.13;4944237;29;20020;-78
2021/10/22 02:25:07;;;;;;;17.67;12.82;;;;;;;13.21;100.00;97698.09;4943167;29;20052;-78
2021/10/22 02:27:33;;;;;;;24.80;14.48;;;;;;;13.22;100.00;97694.19;4941958;29;20032;-79
2021/10/22 02:29:58;;;;;;;15.80;12.25;;;;;;;13.24;100.00;97689.22;4924776;29;20016;-79
2021/10/22 02:32:24;;;;;;;16.67;13.10;;;;;;;13.25;100.00;97688.09;4945472;29;20458;-79
2021/10/22 02:34:49;;;;;;;16.02;12.65;;;;;;;13.12;100.00;97697.25;4943960;29;20031;-79
2021/10/22 02:37:15;;;;;;;24.10;14.25;;;;;;;13.02;100.00;97698.31;4927717;29;20095;-79
2021/10/22 02:39:40;;;;;;;19.60;14.93;;;;;;;12.98;100.00;97696.50;4943107;29;20023;-79
2021/10/22 02:42:06;;;;;;;21.80;15.00;;;;;;;13.00;100.00;97688.78;4942014;29;20059;-79
2021/10/22 02:44:32;;;;;;;19.52;14.80;;;;;;;13.02;100.00;97681.84;4939332;29;20549;-79
2021/10/22 02:46:58;;;;;;;18.27;14.73;;;;;;;12.94;100.00;97682.59;4942326;29;20044;-79
2021/10/22 02:49:24;;;;;;;21.90;15.25;;;;;;;12.88;100.00;97690.16;4951135;29;20051;-79
2021/10/22 02:51:49;;;;;;;22.67;16.10;;;;;;;12.73;100.00;97687.84;4953381;29;20034;-79
2021/10/22 02:54:15;;;;;;;23.40;16.63;;;;;;;12.65;100.00;97693.31;4944453;29;20024;-79
2021/10/22 02:56:40;;;;;;;28.13;15.80;;;;;;;12.63;100.00;97692.78;4942396;29;20023;-79
2021/10/22 02:59:06;;;;;;;22.08;17.30;;;;;;;12.59;100.00;97692.59;4926850;29;20477;-79
2021/10/22 03:01:32;;;;;;;22.15;17.20;;;;;;;12.66;100.00;97694.91;4959930;28;20042;-79
2021/10/22 03:03:57;;;;;;;22.50;17.73;;;;;;;12.73;100.00;97701.56;4960199;29;20031;-79
2021/10/22 03:06:25;;;;;;;27.15;17.70;;;;;;;12.72;100.00;97688.97;4944847;29;20027;-78
2021/10/22 03:08:50;;;;;;;19.63;15.48;;;;;;;12.75;100.00;97696.56;4942606;29;20051;-79
2021/10/22 03:11:16;;;;;;;19.90;14.68;;;;;;;12.81;100.00;97698.03;4944347;29;20062;-79
2021/10/22 03:13:41;;;;;;;19.52;15.55;;;;;;;12.87;100.00;97707.75;4939370;29;20111;-79
2021/10/22 03:16:07;;;;;;;24.27;16.00;;;;;;;12.85;100.00;97712.75;4943372;29;20042;-79
2021/10/22 03:18:32;;;;;;;18.55;14.95;;;;;;;12.86;100.00;97713.59;4940662;29;20043;-78
2021/10/22 03:20:57;;;;;;;20.05;15.68;;;;;;;12.78;100.00;97715.16;4940751;29;20039;-79
2021/10/22 03:23:23;;;;;;;19.25;15.73;;;;;;;12.75;100.00;97713.03;4957801;28;20543;-78
2021/10/22 03:25:49;;;;;;;21.65;16.17;;;;;;;12.71;100.00;97717.56;4957427;29;20051;-78
2021/10/22 03:28:15;;;;;;;23.83;15.43;;;;;;;12.63;100.00;97721.03;4960244;29;20051;-79
2021/10/22 03:30:41;;;;;;;19.45;15.88;;;;;;;12.55;100.00;97724.56;4959690;29;20099;-79
2021/10/22 03:33:06;;;;;;;20.35;15.90;;;;;;;12.49;100.00;97723.06;4958999;29;20023;-78
2021/10/22 03:35:32;;;;;;;18.25;14.65;;;;;;;12.42;100.00;97728.19;4958040;29;20452;-77
2021/10/22 03:37:57;;;;;;;19.85;15.98;;;;;;;12.35;100.00;97730.53;4958512;29;20015;-78
2021/10/22 03:40:23;;;;;;;19.67;15.65;;;;;;;12.29;100.00;97729.88;4948329;28;20035;-78
2021/10/22 03:42:55;;;;;;;21.50;16.52;;;;;;;12.18;100.00;97719.47;4979678;28;20011;-79
2021/10/22 03:45:22;;;;;;;19.77;15.13;;;;;;;12.15;100.00;97718.13;4953286;29;20567;-80
2021/10/22 03:47:49;;;;;;;18.75;15.30;;;;;;;12.06;100.00;97722.75;4970016;29;20027;-79
2021/10/22 03:50:17;;;;;;;24.23;16.70;;;;;;;12.07;100.00;97723.56;4965402;29;20018;-79
2021/10/22 03:52:42;;;;;;;22.92;16.67;;;;;;;11.95;100.00;97731.53;4955455;29;20360;-79
2021/10/22 03:55:08;;;;;;;24.02;17.08;;;;;;;11.91;100.00;97736.81;4938730;29;20038;-79
2021/10/22 03:57:33;;;;;;;21.70;15.93;;;;;;;11.90;100.00;97745.34;4941572;29;20024;-80
2021/10/22 04:00:00;;;;;;;26.90;15.90;;;;;;;11.83;100.00;97745.78;4947296;29;20019;-78
2021/10/22 04:02:26;;;;;;;23.85;15.63;;;;;;;11.77;100.00;97741.53;4928576;29;20079;-80
2021/10/22 04:04:52;;;;;;;29.05;17.35;;;;;;;11.69;100.00;97748.50;4947926;29;20019;-78
2021/10/22 04:07:20;;;;;;;21.27;16.17;;;;;;;11.67;100.00;97750.75;4926717;29;20484;-79
2021/10/22 04:09:45;;;;;;;22.23;17.55;;;;;;;11.65;100.00;97760.41;4946553;28;20388;-79
2021/10/22 04:12:10;;;;;;;22.60;19.00;;;;;;;11.64;100.00;97748.63;4944706;29;20032;-78
2021/10/22 04:14:36;;;;;;;25.70;18.17;;;;;;;11.60;100.00;97744.88;4945186;29;20132;-78
2021/10/22 04:17:01;;;;;;;20.63;17.13;;;;;;;11.64;100.00;97748.63;4931424;29;20026;-80
2021/10/22 04:19:27;;;;;;;25.80;16.98;;;;;;;11.62;100.00;97752.81;4938638;29;20028;-78
2021/10/22 04:21:52;;;;;;;25.35;17.77;;;;;;;11.49;100.00;97751.69;4937960;29;20453;-80
2021/10/22 04:24:18;;;;;;;25.83;18.63;;;;;;;11.43;100.00;97744.72;4938821;29;20035;-79
2021/10/22 04:26:45;;;;;;;27.52;19.50;;;;;;;11.43;100.00;97746.63;4938917;29;20052;-79
2021/10/22 04:29:12;;;;;;;28.65;22.17;;;;;;;11.37;100.00;97743.16;4937333;29;20122;-80
2021/10/22 04:31:38;;;;;;;31.30;23.02;;;;;;;11.35;100.00;97750.88;4948001;29;20532;-76
2021/10/22 04:34:03;;;;;;;27.83;20.02;;;;;;;11.33;100.00;97752.31;4954129;29;20469;-78
2021/10/22 04:36:28;;;;;;;27.63;21.25;;;;;;;11.36;100.00;97758.00;4939822;29;20035;-79
2021/10/22 04:41:38;;;;;;;30.13;21.05;;;;;;;11.32;100.00;97756.97;4943072;29;20038;-79
2021/10/22 04:44:04;;;;;;;33.22;24.80;;;;;;;11.32;100.00;97751.50;4947334;29;20035;-78
2021/10/22 04:46:29;;;;;;;35.38;23.70;;;;;;;11.31;100.00;97760.81;4945432;29;20023;-80
2021/10/22 04:48:55;;;;;;;33.90;22.65;;;;;;;11.29;100.00;97752.09;4938935;29;20038;-81
2021/10/22 04:51:20;;;;;;;27.77;21.08;;;;;;;11.31;100.00;97762.78;4942796;29;20038;-79
2021/10/22 04:53:46;;;;;;;25.75;20.55;;;;;;;11.29;100.00;97768.53;4925548;29;20038;-79
2021/10/22 04:56:12;;;;;;;29.48;20.98;;;;;;;11.31;100.00;97755.34;4925400;29;20024;-78
2021/10/22 04:58:38;;;;;;;31.85;20.83;;;;;;;11.26;100.00;97758.19;4952778;29;20027;-78
2021/10/22 05:01:04;;;;;;;38.35;26.35;;;;;;;11.38;100.00;97765.88;4965138;29;20041;-79
2021/10/22 05:03:30;;;;;;;26.52;21.40;;;;;;;11.46;100.00;97757.78;4959395;29;20110;-78
2021/10/22 05:05:56;;;;;;;28.65;20.77;;;;;;;11.49;100.00;97764.59;4954912;28;20077;-78
2021/10/22 05:08:21;;;;;;;27.88;20.58;;;;;;;11.41;100.00;97768.84;4937196;29;20031;-78
2021/10/22 05:10:46;;;;;;;34.95;23.08;;;;;;;11.51;100.00;97782.31;4949453;29;20087;-78
2021/10/22 05:13:12;;;;;;;27.65;20.95;;;;;;;11.62;100.00;97767.28;4941310;29;20467;-79
2021/10/22 05:15:37;;;;;;;26.17;20.25;;;;;;;11.74;100.00;97769.56;4963909;29;20114;-79
2021/10/22 05:18:03;;;;;;;26.70;19.10;;;;;;;11.81;100.00;97767.19;4972069;29;20053;-81
2021/10/22 05:20:28;;;;;;;28.20;19.80;;;;;;;11.79;100.00;97766.69;4974555;29;20031;-80
2021/10/22 05:22:54;;;;;;;24.08;18.30;;;;;;;11.77;100.00;97761.53;4970789;28;20035;-80
2021/10/22 05:25:20;;;;;;;28.55;19.33;;;;;;;11.68;100.00;97760.56;4955616;29;20057;-80
2021/10/22 05:27:46;;;;;;;27.10;19.73;;;;;;;11.62;100.00;97759.06;4970671;29;20051;-81
2021/10/22 05:30:12;;;;;;;31.27;21.30;;;;;;;11.58;100.00;97770.97;4970591;29;20477;-78
2021/10/22 05:32:37;;;;;;;37.35;25.00;;;;;;;11.51;100.00;97768.63;4970546;29;20086;-81
2021/10/22 05:35:03;;;;;;;34.08;22.30;;;;;;;11.62;100.00;97777.47;4971323;29;20055;-80
2021/10/22 05:37:29;;;;;;;33.42;23.02;;;;;;;11.59;100.00;97767.91;4965960;28;20031;-81
2021/10/22 05:39:55;;;;;;;41.60;25.77;;;;;;;11.65;100.00;97774.88;4967694;29;20027;-79
2021/10/22 05:42:21;;;;;;;53.00;30.95;;;;;;;11.66;100.00;97779.25;4970129;29;20514;-80
2021/10/22 05:44:46;;;;;;;50.42;29.38;;;;;;;11.68;100.00;97787.97;4972668;28;20023;-80
2021/10/22 05:47:12;;;;;;;41.58;26.63;;;;;;;11.65;100.00;97788.59;4956413;28;20020;-80
2021/10/22 05:49:38;;;;;;;33.45;23.20;;;;;;;11.71;100.00;97787.41;4970476;28;20038;-77
2021/10/22 05:52:04;;;;;;;33.47;21.95;;;;;;;11.86;100.00;97790.94;4970634;28;20023;-80
2021/10/22 05:54:29;;;;;;;33.72;24.98;;;;;;;11.81;100.00;97791.84;4951040;29;20023;-77
2021/10/22 05:56:55;;;;;;;34.22;22.65;;;;;;;11.82;100.00;97794.28;4973579;29;20031;-79
2021/10/22 05:59:20;;;;;;;29.33;22.50;;;;;;;11.90;100.00;97800.19;4969796;28;20039;-78
2021/10/22 06:01:46;;;;;;;29.83;21.02;;;;;;;11.88;100.00;97807.88;4959142;29;20028;-78
2021/10/22 06:04:12;;;;;;;36.85;23.02;;;;;;;12.02;100.00;97803.19;4939902;29;20023;-80
2021/10/22 06:06:38;;;;;;;28.08;21.08;;;;;;;12.09;100.00;97806.31;4931082;29;20020;-80
2021/10/22 06:09:03;;;;;;;35.17;25.23;;;;;;;12.10;100.00;97814.22;4953116;29;20043;-78
2021/10/22 06:11:29;;;;;;;36.83;23.63;;;;;;;12.14;100.00;97806.19;4936941;29;20028;-79
2021/10/22 06:13:54;;;;;;;36.33;23.67;;;;;;;12.26;100.00;97821.00;4937933;29;20055;-79
2021/10/22 06:16:21;;;;;;;29.77;22.10;;;;;;;12.39;100.00;97827.56;4951218;29;20055;-79
2021/10/22 06:18:50;;;;;;;33.80;24.08;;;;;;;12.47;100.00;97831.50;4933221;29;20064;-80
2021/10/22 06:21:23;;;;;;;29.92;21.67;;;;;;;12.52;100.00;97829.44;4949781;29;20036;-77
2021/10/22 06:23:56;;;;;;;31.83;22.25;;;;;;;12.61;100.00;97822.09;4952914;29;20036;-78
2021/10/22 06:26:24;;;;;;;33.08;21.40;;;;;;;12.67;100.00;97826.31;4958919;29;20055;-80
2021/10/22 06:28:51;;;;;;;28.40;20.35;;;;;;;12.68;100.00;97830.69;4942174;29;20036;-81
2021/10/22 06:31:17;;;;;;;26.65;19.30;;;;;;;12.72;100.00;97842.66;4959107;29;20019;-77
2021/10/22 06:33:42;;;;;;;24.33;18.05;;;;;;;12.64;100.00;97854.41;4955123;29;20042;-79
2021/10/22 06:36:10;;;;;;;27.27;19.15;;;;;;;12.53;100.00;97861.22;4936716;29;20007;-75
2021/10/22 06:38:36;;;;;;;29.98;21.63;;;;;;;12.47;100.00;97865.22;4944631;29;20050;-78
2021/10/22 06:41:03;;;;;;;32.13;23.00;;;;;;;12.40;100.00;97864.03;4944551;29;20039;-77
2021/10/22 06:43:30;;;;;;;34.47;24.30;;;;;;;12.46;100.00;97874.59;4961459;29;20023;-79
2021/10/22 06:45:55;;;;;;;38.60;26.27;;;;;;;12.46;100.00;97863.59;4957855;29;20031;-80
2021/10/22 06:48:21;;;;;;;45.80;30.90;;;;;;;12.44;100.00;97865.84;4958285;29;20004;-78
2021/10/22 06:50:47;;;;;;;46.67;27.38;;;;;;;12.51;100.00;97862.66;4956054;29;20035;-79
2021/10/22 06:53:14;;;;;;;41.25;25.45;;;;;;;12.66;100.00;97873.28;4955266;29;20051;-78
2021/10/22 06:55:40;;;;;;;34.90;25.38;;;;;;;12.67;100.00;97875.72;4937142;29;20071;-80
2021/10/22 06:58:06;;;;;;;40.17;25.25;;;;;;;12.85;100.00;97871.16;4953648;29;20024;-80
2021/10/22 07:00:33;;;;;;;41.92;25.95;;;;;;;12.98;100.00;97866.75;4955569;29;20039;-80
2021/10/22 07:02:59;;;;;;;33.65;23.67;;;;;;;13.05;100.00;97864.38;4952598;29;20059;-80
2021/10/22 07:05:48;;;;;;;32.97;22.67;;;;;;;13.16;100.00;97874.00;4935439;29;20040;-79
2021/10/22 07:08:12;;;;;;;39.75;25.33;;;;;;;13.18;100.00;97874.50;4957083;29;20016;-78
2021/10/22 07:10:38;;;;;;;38.10;24.23;;;;;;;13.28;100.00;97883.28;4958793;29;20035;-80
2021/10/22 07:13:04;;;;;;;40.50;26.35;;;;;;;13.19;100.00;97887.09;4958240;29;20035;-80
2021/10/22 07:15:30;;;;;;;39.75;25.27;;;;;;;13.10;100.00;97894.47;4959910;29;20032;-79
2021/10/22 07:17:59;;;;;;;37.80;25.98;;;;;;;13.03;100.00;97897.63;4949263;29;20032;-80
2021/10/22 07:20:28;;;;;;;41.30;26.35;;;;;;;12.98;100.00;97897.75;4947203;29;20035;-79
2021/10/22 07:23:02;;;;;;;40.58;27.92;;;;;;;12.90;100.00;97893.03;4951282;29;20481;-80
2021/10/22 07:25:28;;;;;;;36.25;24.88;;;;;;;13.04;100.00;97895.69;4959142;29;20245;-80
2021/10/22 07:27:54;;;;;;;41.72;24.20;;;;;;;13.21;100.00;97890.34;4950156;29;20027;-80
2021/10/22 07:30:19;;;;;;;35.75;24.95;;;;;;;13.40;100.00;97894.53;4947601;29;20055;-80
2021/10/22 07:32:47;;;;;;;36.03;24.15;;;;;;;13.64;100.00;97888.63;4944745;29;20031;-81
2021/10/22 07:35:14;;;;;;;36.35;22.73;;;;;;;13.93;100.00;97893.63;4939756;29;20032;-80
2021/10/22 07:37:40;;;;;;;32.08;22.20;;;;;;;14.14;100.00;97900.16;4925565;29;20081;-80
2021/10/22 07:40:07;;;;;;;28.38;20.98;;;;;;;14.33;100.00;97906.22;4909344;29;20083;-81
2021/10/22 07:42:33;;;;;;;34.20;20.65;;;;;;;14.32;100.00;97909.25;4943011;29;20046;-81
2021/10/22 07:45:00;;;;;;;28.88;20.23;;;;;;;14.07;100.00;97907.22;4945923;29;20027;-81
2021/10/22 07:47:33;;;;;;;36.65;21.30;;;;;;;14.13;100.00;97916.94;4964943;29;20062;-81
2021/10/22 07:50:00;;;;;;;27.60;21.23;;;;;;;14.22;100.00;97923.31;4966537;29;20389;-81
2021/10/22 07:52:29;;;;;;;30.58;20.58;;;;;;;14.16;100.00;97919.09;4961546;28;20507;-81
2021/10/22 07:54:57;;;;;;;31.70;21.58;;;;;;;14.30;100.00;97923.34;4962066;29;20503;-80
2021/10/22 07:57:23;;;;;;;29.05;19.95;;;;;;;14.50;100.00;97926.66;4943546;29;20035;-80
2021/10/22 07:59:50;;;;;;;26.08;19.48;;;;;;;14.64;100.00;97928.13;4963894;29;20027;-80
2021/10/22 08:02:16;;;;;;;30.55;19.77;;;;;;;14.67;100.00;97921.97;4959815;28;20062;-80
2021/10/22 08:04:47;;;;;;;27.65;19.23;;;;;;;14.88;100.00;97924.88;4962171;29;20485;-80
2021/10/22 08:07:15;;;;;;;27.35;20.15;;;;;;;14.84;100.00;97938.50;4960956;28;20512;-80
2021/10/22 08:09:41;;;;;;;27.92;19.10;;;;;;;14.92;100.00;97936.88;4953545;29;20111;-80
2021/10/22 08:12:06;;;;;;;28.63;19.25;;;;;;;14.88;100.00;97931.19;4942370;29;20591;-80
2021/10/22 08:14:32;;;;;;;27.52;20.20;;;;;;;14.85;100.00;97923.59;4939731;29;20489;-80
2021/10/22 08:16:59;;;;;;;33.53;19.25;;;;;;;14.93;100.00;97935.75;4943343;29;20035;-80
2021/10/22 08:19:26;;;;;;;25.92;19.63;;;;;;;14.86;100.00;97941.75;4944003;29;20034;-81
2021/10/22 08:24:35;;;;;;;27.52;19.25;;;;;;;14.83;100.00;97941.56;4945978;29;20106;-80
2021/10/22 08:27:01;;;;;;;34.85;20.73;;;;;;;14.84;100.00;97944.03;4942775;29;20501;-79
2021/10/22 08:29:27;;;;;;;29.73;20.02;;;;;;;14.85;100.00;97942.88;4939394;29;20039;-77
2021/10/22 08:31:52;;;;;;;28.13;18.85;;;;;;;14.85;100.00;97942.03;4949307;29;20035;-80
2021/10/22 08:34:18;;;;;;;24.83;18.75;;;;;;;14.89;100.00;97952.09;4952895;29;20043;-79
2021/10/22 08:36:44;;;;;;;27.02;19.08;;;;;;;14.87;100.00;97940.63;4944762;29;20059;-79
2021/10/22 08:39:10;;;;;;;27.05;20.08;;;;;;;14.95;100.00;97955.50;4939946;29;20032;-79
2021/10/22 08:41:37;;;;;;;30.30;20.52;;;;;;;15.02;100.00;97942.88;4938270;29;20032;-80
2021/10/22 08:44:03;;;;;;;30.27;19.85;;;;;;;15.10;100.00;97945.97;4940451;29;20035;-80
2021/10/22 08:46:35;;;;;;;27.63;19.33;;;;;;;15.18;100.00;97945.94;4945174;29;20500;-80
2021/10/22 08:49:02;;;;;;;28.42;20.05;;;;;;;15.29;100.00;97944.47;4946122;29;20520;-80
2021/10/22 08:51:28;;;;;;;27.58;19.65;;;;;;;15.46;100.00;97946.41;4943997;29;20046;-80
2021/10/22 08:53:53;;;;;;;26.00;19.55;;;;;;;15.40;100.00;97939.44;4945860;29;20020;-79
2021/10/22 08:56:19;;;;;;;25.33;19.25;;;;;;;15.47;100.00;97953.53;4943632;29;20058;-79
2021/10/22 08:58:45;;;;;;;28.63;20.17;;;;;;;15.43;100.00;97947.06;4947512;29;20126;-80
2021/10/22 09:01:10;;;;;;;24.60;18.60;;;;;;;15.46;100.00;97951.91;4953023;28;20035;-79
2021/10/22 09:03:38;;;;;;;26.70;19.17;;;;;;;15.41;100.00;97952.88;4945044;29;20388;-79
2021/10/22 09:06:15;;;;;;;35.75;21.23;;;;;;;15.36;100.00;97963.28;4950509;29;20020;-78
2021/10/22 09:08:43;;;;;;;25.95;18.65;;;;;;;15.28;100.00;97953.09;4923625;29;20031;-79
2021/10/22 09:11:37;;;;;;;26.52;19.63;;;;;;;15.24;100.00;97963.13;4942246;29;20035;-80
2021/10/22 09:14:17;;;;;;;27.08;19.58;;;;;;;15.08;100.00;97953.72;4961123;29;20035;-81
2021/10/22 09:16:49;;;;;;;29.20;19.63;;;;;;;15.03;100.00;97951.97;4973907;29;20027;-80
2021/10/22 09:19:28;;;;;;;26.00;19.48;;;;;;;14.96;100.00;97946.94;4963238;29;20087;-78
2021/10/22 09:21:54;;;;;;;27.77;20.13;;;;;;;14.91;100.00;97938.03;4961829;29;20039;-80
2021/10/22 09:24:20;;;;;;;27.10;20.85;;;;;;;14.90;100.00;97933.66;4960248;28;20023;-79
2021/10/22 09:26:57;;;;;;;28.55;21.63;;;;;;;14.70;100.00;97940.59;4962822;29;20511;-78
2021/10/22 09:29:27;;;;;;;28.17;19.80;;;;;;;14.87;100.00;97937.06;4965073;28;20027;-80
2021/10/22 09:31:56;;;;;;;31.00;21.42;;;;;;;14.93;100.00;97947.59;4964401;29;20512;-79
2021/10/22 09:34:30;;;;;;;27.40;21.08;;;;;;;15.07;100.00;97952.13;4965360;29;20058;-80
2021/10/22 09:36:57;;;;;;;21.77;16.17;;;;;;;14.76;100.00;97953.06;4961716;28;20043;-80
2021/10/22 09:39:23;;;;;;;21.83;15.77;;;;;;;14.66;100.00;97942.34;4963591;29;20039;-81
2021/10/22 09:41:59;;;;;;;21.42;15.43;;;;;;;14.81;100.00;97939.16;4965952;29;20031;-79
2021/10/22 09:44:29;;;;;;;17.65;13.95;;;;;;;14.75;100.00;97942.38;4961560;29;20027;-82
2021/10/22 09:47:04;;;;;;;20.65;13.88;;;;;;;14.88;100.00;97944.97;4959081;29;20024;-80
2021/10/22 09:49:36;;;;;;;17.08;12.60;;;;;;;14.92;100.00;97945.94;4964273;29;20049;-80
2021/10/22 09:52:03;;;;;;;16.63;12.43;;;;;;;15.16;100.00;97952.94;4963022;29;20027;-78
2021/10/22 09:54:31;;;;;;;17.02;12.38;;;;;;;15.07;100.00;97941.09;4943704;29;20035;-78
2021/10/22 09:57:04;;;;;;;17.33;11.82;;;;;;;15.36;100.00;97949.50;4959125;28;20031;-79
2021/10/22 09:59:30;;;;;;;22.40;13.35;;;;;;;15.60;100.00;97941.53;4957532;28;20032;-79
2021/10/22 10:02:01;;;;;;;20.38;14.00;;;;;;;15.90;100.00;97948.75;4940980;29;20090;-80
2021/10/22 10:04:27;;;;;;;15.48;12.15;;;;;;;15.55;100.00;97949.97;4958251;29;20027;-79
2021/10/22 10:06:54;;;;;;;17.30;12.05;;;;;;;15.73;100.00;97959.00;4957300;28;20035;-79
2021/10/22 10:09:21;;;;;;;20.00;11.07;;;;;;;15.69;100.00;97964.41;4943309;29;20027;-77
2021/10/22 10:11:49;;;;;;;14.15;9.68;;;;;;;15.48;100.00;97958.75;4960949;29;20028;-79
2021/10/22 10:14:16;;;;;;;14.48;10.40;;;;;;;15.16;100.00;97961.19;4948562;29;20019;-79
2021/10/22 10:16:47;;;;;;;12.60;9.40;;;;;;;15.41;100.00;97957.63;4940572;29;20782;-78
2021/10/22 10:19:22;;;;;;;14.60;8.98;;;;;;;15.36;100.00;97958.56;4941816;29;20036;-79
2021/10/22 10:21:58;;;;;;;13.80;8.50;;;;;;;15.34;100.00;97954.53;4943086;29;20031;-78
2021/10/22 10:24:35;;;;;;;14.05;9.35;;;;;;;15.40;100.00;97962.31;4943683;29;20036;-79
2021/10/22 10:27:03;;;;;;;11.13;8.65;;;;;;;15.61;100.00;97951.44;4945915;29;20040;-78
2021/10/22 10:29:32;;;;;;;11.68;8.65;;;;;;;15.65;100.00;97952.41;4946248;29;20027;-78
2021/10/22 10:32:00;;;;;;;15.90;9.90;;;;;;;15.67;100.00;97949.28;4941253;29;20032;-78
2021/10/22 10:34:39;;;;;;;17.30;10.50;;;;;;;15.31;100.00;97964.28;4942028;29;20166;-79
2021/10/22 10:37:19;;;;;;;12.95;9.02;;;;;;;15.22;100.00;97948.88;4946127;28;20023;-79
2021/10/22 10:39:44;;;;;;;15.77;9.10;;;;;;;15.38;100.00;97950.00;4943128;29;20036;-80
2021/10/22 10:42:35;;;;;;;13.18;9.30;;;;;;;15.60;100.00;97946.25;4961374;28;20070;-78
2021/10/22 10:45:06;;;;;;;14.93;9.60;;;;;;;15.56;100.00;97940.59;4943857;28;20123;-78
2021/10/22 10:47:44;;;;;;;13.02;8.73;;;;;;;15.56;100.00;97935.06;4935395;29;20064;-79
2021/10/22 10:50:11;;;;;;;14.65;9.07;;;;;;;15.71;100.00;97930.97;4944079;29;20048;-79
2021/10/22 10:52:37;;;;;;;16.23;9.65;;;;;;;15.64;100.00;97931.47;4943621;29;20032;-81
2021/10/22 10:55:39;;;;;;;14.40;8.95;;;;;;;15.78;100.00;97934.03;4944814;29;20035;-78
2021/10/22 10:58:10;;;;;;;12.80;8.63;;;;;;;15.48;100.00;97935.88;4944430;29;20035;-77
2021/10/22 11:00:49;;;;;;;14.18;8.82;;;;;;;15.46;100.00;97929.88;4962865;29;20031;-78
2021/10/22 11:03:18;;;;;;;11.88;8.45;;;;;;;15.42;100.00;97921.44;4963903;29;20451;-81
2021/10/22 11:05:50;;;;;;;10.80;8.60;;;;;;;15.61;100.00;97917.53;4943053;29;20032;-78
2021/10/22 11:08:23;;;;;;;13.32;8.50;;;;;;;16.04;100.00;97916.22;4923107;29;20042;-78
2021/10/22 11:11:15;;;;;;;10.07;7.85;;;;;;;15.93;100.00;97920.50;4941922;29;20039;-78
2021/10/22 11:13:52;;;;;;;14.00;8.15;;;;;;;15.91;100.00;97916.47;4939288;29;20087;-79
2021/10/22 11:16:21;;;;;;;12.38;8.27;;;;;;;15.95;100.00;97918.22;4941017;29;20111;-79